sensor_id;sensor_type;location;lat;lon;timestamp;P1;durP1;ratioP1;P2;durP2;ratioP2
11777;SDS011;5946;51.770;8.548;2022-10-17T00:01:21;19.67;;;15.13;;
11777;SDS011;5946;51.770;8.548;2022-10-17T00:03:47;20.40;;;14.20;;
11777;SDS011;5946;51.770;8.548;2022-10-17T00:06:13;21.27;;;15.13;;
11777;SDS011;5946;51.770;8.548;2022-10-17T00:08:40;19.60;;;14.80;;
11777;SDS011;5946;51.770;8.548;2022-10-17T00:11:08;22.73;;;16.07;;
11777;SDS011;5946;51.770;8.548;2022-10-17T00:13:34;20.03;;;15.07;;
11777;SDS011;5946;51.770;8.548;2022-10-17T00:16:00;22.57;;;14.57;;
11777;SDS011;5946;51.770;8.548;2022-10-17T00:18:26;19.27;;;13.90;;
11777;SDS011;5946;51.770;8.548;2022-10-17T00:20:52;20.27;;;14.70;;
11777;SDS011;5946;51.770;8.548;2022-10-17T00:23:18;19.60;;;15.10;;
11777;SDS011;5946;51.770;8.548;2022-10-17T00:25:44;20.67;;;15.60;;
11777;SDS011;5946;51.770;8.548;2022-10-17T00:28:11;19.97;;;14.43;;
11777;SDS011;5946;51.770;8.548;2022-10-17T00:30:37;19.70;;;14.83;;
11777;SDS011;5946;51.770;8.548;2022-10-17T00:33:03;21.03;;;15.13;;
11777;SDS011;5946;51.770;8.548;2022-10-17T00:35:29;21.77;;;15.00;;
11777;SDS011;5946;51.770;8.548;2022-10-17T00:37:55;24.20;;;17.07;;
11777;SDS011;5946;51.770;8.548;2022-10-17T00:40:21;24.37;;;16.03;;
11777;SDS011;5946;51.770;8.548;2022-10-17T00:42:47;18.30;;;15.00;;
11777;SDS011;5946;51.770;8.548;2022-10-17T00:45:17;19.20;;;14.70;;
11777;SDS011;5946;51.770;8.548;2022-10-17T00:47:45;19.47;;;14.90;;
11777;SDS011;5946;51.770;8.548;2022-10-17T00:50:12;23.70;;;15.90;;
11777;SDS011;5946;51.770;8.548;2022-10-17T00:52:38;24.80;;;16.67;;
11777;SDS011;5946;51.770;8.548;2022-10-17T00:55:27;26.67;;;17.77;;
11777;SDS011;5946;51.770;8.548;2022-10-17T00:57:53;20.77;;;15.67;;
11777;SDS011;5946;51.770;8.548;2022-10-17T01:00:20;23.63;;;15.70;;
11777;SDS011;5946;51.770;8.548;2022-10-17T01:02:46;21.00;;;15.47;;
11777;SDS011;5946;51.770;8.548;2022-10-17T01:05:13;22.53;;;15.50;;
11777;SDS011;5946;51.770;8.548;2022-10-17T01:07:39;20.67;;;14.70;;
11777;SDS011;5946;51.770;8.548;2022-10-17T01:10:06;25.13;;;16.07;;
11777;SDS011;5946;51.770;8.548;2022-10-17T01:12:37;21.10;;;15.30;;
11777;SDS011;5946;51.770;8.548;2022-10-17T01:15:09;24.40;;;16.70;;
11777;SDS011;5946;51.770;8.548;2022-10-17T01:22:46;23.10;;;15.40;;
11777;SDS011;5946;51.770;8.548;2022-10-17T01:27:50;23.87;;;16.10;;
11777;SDS011;5946;51.770;8.548;2022-10-17T01:32:56;21.50;;;15.73;;
11777;SDS011;5946;51.770;8.548;2022-10-17T01:35:36;25.83;;;17.20;;
11777;SDS011;5946;51.770;8.548;2022-10-17T01:38:13;22.70;;;16.03;;
11777;SDS011;5946;51.770;8.548;2022-10-17T01:40:48;21.23;;;16.03;;
11777;SDS011;5946;51.770;8.548;2022-10-17T01:43:23;23.47;;;15.73;;
11777;SDS011;5946;51.770;8.548;2022-10-17T01:46:00;21.57;;;15.73;;
11777;SDS011;5946;51.770;8.548;2022-10-17T01:48:30;23.83;;;15.63;;
11777;SDS011;5946;51.770;8.548;2022-10-17T01:51:00;22.07;;;15.47;;
11777;SDS011;5946;51.770;8.548;2022-10-17T01:53:29;23.73;;;16.10;;
11777;SDS011;5946;51.770;8.548;2022-10-17T01:55:56;21.13;;;15.80;;
11777;SDS011;5946;51.770;8.548;2022-10-17T01:58:32;21.50;;;16.10;;
11777;SDS011;5946;51.770;8.548;2022-10-17T02:01:02;27.30;;;18.33;;
11777;SDS011;5946;51.770;8.548;2022-10-17T02:03:29;19.87;;;15.10;;
11777;SDS011;5946;51.770;8.548;2022-10-17T02:05:56;18.33;;;14.40;;
11777;SDS011;5946;51.770;8.548;2022-10-17T02:08:26;22.43;;;15.70;;
11777;SDS011;5946;51.770;8.548;2022-10-17T02:10:56;22.47;;;15.37;;
11777;SDS011;5946;51.770;8.548;2022-10-17T02:26:32;20.90;;;15.60;;
11777;SDS011;5946;51.770;8.548;2022-10-17T02:31:28;24.67;;;16.47;;
11777;SDS011;5946;51.770;8.548;2022-10-17T02:34:04;23.97;;;16.20;;
11777;SDS011;5946;51.770;8.548;2022-10-17T02:36:38;22.20;;;16.30;;
11777;SDS011;5946;51.770;8.548;2022-10-17T02:39:04;24.37;;;16.73;;
11777;SDS011;5946;51.770;8.548;2022-10-17T02:41:31;21.30;;;15.80;;
11777;SDS011;5946;51.770;8.548;2022-10-17T02:43:58;19.63;;;14.90;;
11777;SDS011;5946;51.770;8.548;2022-10-17T02:46:24;19.83;;;15.40;;
11777;SDS011;5946;51.770;8.548;2022-10-17T02:48:53;26.23;;;17.30;;
11777;SDS011;5946;51.770;8.548;2022-10-17T02:54:04;26.97;;;16.67;;
11777;SDS011;5946;51.770;8.548;2022-10-17T02:56:33;24.90;;;16.47;;
11777;SDS011;5946;51.770;8.548;2022-10-17T02:59:01;24.73;;;16.83;;
11777;SDS011;5946;51.770;8.548;2022-10-17T03:01:28;25.93;;;16.77;;
11777;SDS011;5946;51.770;8.548;2022-10-17T03:04:12;25.50;;;17.17;;
11777;SDS011;5946;51.770;8.548;2022-10-17T03:06:38;24.30;;;17.07;;
11777;SDS011;5946;51.770;8.548;2022-10-17T03:09:04;25.53;;;16.93;;
11777;SDS011;5946;51.770;8.548;2022-10-17T03:11:30;21.93;;;15.30;;
11777;SDS011;5946;51.770;8.548;2022-10-17T03:13:56;21.40;;;15.53;;
11777;SDS011;5946;51.770;8.548;2022-10-17T03:16:22;23.90;;;16.20;;
11777;SDS011;5946;51.770;8.548;2022-10-17T03:18:48;24.07;;;16.57;;
11777;SDS011;5946;51.770;8.548;2022-10-17T03:21:14;23.17;;;16.30;;
11777;SDS011;5946;51.770;8.548;2022-10-17T03:23:40;22.97;;;15.73;;
11777;SDS011;5946;51.770;8.548;2022-10-17T03:26:06;22.77;;;15.70;;
11777;SDS011;5946;51.770;8.548;2022-10-17T03:28:32;23.43;;;16.43;;
11777;SDS011;5946;51.770;8.548;2022-10-17T03:30:58;22.17;;;15.10;;
11777;SDS011;5946;51.770;8.548;2022-10-17T03:33:24;21.50;;;15.37;;
11777;SDS011;5946;51.770;8.548;2022-10-17T03:35:50;25.87;;;16.40;;
11777;SDS011;5946;51.770;8.548;2022-10-17T03:38:16;29.03;;;17.17;;
11777;SDS011;5946;51.770;8.548;2022-10-17T03:40:42;29.37;;;18.63;;
11777;SDS011;5946;51.770;8.548;2022-10-17T03:43:08;25.97;;;17.30;;
11777;SDS011;5946;51.770;8.548;2022-10-17T03:45:35;22.60;;;16.23;;
11777;SDS011;5946;51.770;8.548;2022-10-17T03:48:01;25.43;;;17.40;;
11777;SDS011;5946;51.770;8.548;2022-10-17T03:50:27;22.80;;;16.70;;
11777;SDS011;5946;51.770;8.548;2022-10-17T03:52:53;21.30;;;15.93;;
11777;SDS011;5946;51.770;8.548;2022-10-17T03:55:19;22.83;;;16.73;;
11777;SDS011;5946;51.770;8.548;2022-10-17T03:57:45;23.90;;;16.33;;
11777;SDS011;5946;51.770;8.548;2022-10-17T04:00:11;23.03;;;16.67;;
11777;SDS011;5946;51.770;8.548;2022-10-17T04:02:37;24.13;;;16.57;;
11777;SDS011;5946;51.770;8.548;2022-10-17T04:05:03;25.23;;;16.33;;
11777;SDS011;5946;51.770;8.548;2022-10-17T04:07:29;22.30;;;16.70;;
11777;SDS011;5946;51.770;8.548;2022-10-17T04:09:55;26.27;;;18.73;;
11777;SDS011;5946;51.770;8.548;2022-10-17T04:12:21;24.13;;;18.20;;
11777;SDS011;5946;51.770;8.548;2022-10-17T04:14:47;23.53;;;16.90;;
11777;SDS011;5946;51.770;8.548;2022-10-17T04:17:13;22.83;;;15.57;;
11777;SDS011;5946;51.770;8.548;2022-10-17T04:19:39;23.80;;;16.43;;
11777;SDS011;5946;51.770;8.548;2022-10-17T04:22:05;29.77;;;17.50;;
11777;SDS011;5946;51.770;8.548;2022-10-17T04:24:32;22.07;;;15.83;;
11777;SDS011;5946;51.770;8.548;2022-10-17T04:26:58;25.63;;;16.47;;
11777;SDS011;5946;51.770;8.548;2022-10-17T04:29:24;27.63;;;17.50;;
11777;SDS011;5946;51.770;8.548;2022-10-17T04:31:50;23.83;;;16.40;;
11777;SDS011;5946;51.770;8.548;2022-10-17T04:34:17;25.30;;;16.77;;
11777;SDS011;5946;51.770;8.548;2022-10-17T04:36:43;26.13;;;17.17;;
11777;SDS011;5946;51.770;8.548;2022-10-17T04:39:09;25.13;;;17.00;;
11777;SDS011;5946;51.770;8.548;2022-10-17T04:41:35;28.93;;;17.73;;
11777;SDS011;5946;51.770;8.548;2022-10-17T04:44:01;24.20;;;16.17;;
11777;SDS011;5946;51.770;8.548;2022-10-17T04:46:27;20.80;;;16.13;;
11777;SDS011;5946;51.770;8.548;2022-10-17T04:48:53;22.97;;;16.50;;
11777;SDS011;5946;51.770;8.548;2022-10-17T04:51:19;19.30;;;15.97;;
11777;SDS011;5946;51.770;8.548;2022-10-17T04:53:45;25.60;;;16.93;;
11777;SDS011;5946;51.770;8.548;2022-10-17T04:56:15;25.00;;;16.83;;
11777;SDS011;5946;51.770;8.548;2022-10-17T04:58:42;30.53;;;19.00;;
11777;SDS011;5946;51.770;8.548;2022-10-17T05:01:10;25.00;;;17.63;;
11777;SDS011;5946;51.770;8.548;2022-10-17T05:03:36;23.60;;;17.30;;
11777;SDS011;5946;51.770;8.548;2022-10-17T05:06:06;29.37;;;18.57;;
11777;SDS011;5946;51.770;8.548;2022-10-17T05:08:33;25.07;;;17.37;;
11777;SDS011;5946;51.770;8.548;2022-10-17T05:10:59;28.17;;;18.80;;
11777;SDS011;5946;51.770;8.548;2022-10-17T05:13:25;24.77;;;17.10;;
11777;SDS011;5946;51.770;8.548;2022-10-17T05:15:51;28.93;;;19.10;;
11777;SDS011;5946;51.770;8.548;2022-10-17T05:18:17;22.70;;;16.57;;
11777;SDS011;5946;51.770;8.548;2022-10-17T05:20:43;23.70;;;16.23;;
11777;SDS011;5946;51.770;8.548;2022-10-17T05:23:09;20.50;;;15.53;;
11777;SDS011;5946;51.770;8.548;2022-10-17T05:25:35;21.80;;;15.67;;
11777;SDS011;5946;51.770;8.548;2022-10-17T05:28:01;24.77;;;16.93;;
11777;SDS011;5946;51.770;8.548;2022-10-17T05:30:27;21.33;;;16.53;;
11777;SDS011;5946;51.770;8.548;2022-10-17T05:32:53;24.40;;;17.37;;
11777;SDS011;5946;51.770;8.548;2022-10-17T05:35:19;30.23;;;19.70;;
11777;SDS011;5946;51.770;8.548;2022-10-17T05:37:46;26.17;;;18.47;;
11777;SDS011;5946;51.770;8.548;2022-10-17T05:40:12;23.70;;;16.80;;
11777;SDS011;5946;51.770;8.548;2022-10-17T05:42:38;26.23;;;17.87;;
11777;SDS011;5946;51.770;8.548;2022-10-17T05:45:04;25.90;;;17.70;;
11777;SDS011;5946;51.770;8.548;2022-10-17T05:47:30;25.27;;;17.93;;
11777;SDS011;5946;51.770;8.548;2022-10-17T05:49:56;25.43;;;17.37;;
11777;SDS011;5946;51.770;8.548;2022-10-17T05:52:22;35.10;;;19.47;;
11777;SDS011;5946;51.770;8.548;2022-10-17T05:54:48;33.67;;;18.80;;
11777;SDS011;5946;51.770;8.548;2022-10-17T05:57:14;26.70;;;17.90;;
11777;SDS011;5946;51.770;8.548;2022-10-17T05:59:40;30.43;;;19.27;;
11777;SDS011;5946;51.770;8.548;2022-10-17T06:02:06;30.67;;;18.50;;
11777;SDS011;5946;51.770;8.548;2022-10-17T06:04:32;21.87;;;16.90;;
11777;SDS011;5946;51.770;8.548;2022-10-17T06:06:58;25.73;;;16.77;;
11777;SDS011;5946;51.770;8.548;2022-10-17T06:09:24;22.53;;;16.40;;
11777;SDS011;5946;51.770;8.548;2022-10-17T06:11:50;24.90;;;16.63;;
11777;SDS011;5946;51.770;8.548;2022-10-17T06:14:16;24.93;;;17.47;;
11777;SDS011;5946;51.770;8.548;2022-10-17T06:16:41;32.10;;;18.33;;
11777;SDS011;5946;51.770;8.548;2022-10-17T06:19:07;28.27;;;18.13;;
11777;SDS011;5946;51.770;8.548;2022-10-17T06:21:35;32.37;;;19.27;;
11777;SDS011;5946;51.770;8.548;2022-10-17T06:24:02;28.90;;;18.73;;
11777;SDS011;5946;51.770;8.548;2022-10-17T06:26:28;27.63;;;18.37;;
11777;SDS011;5946;51.770;8.548;2022-10-17T06:28:54;25.77;;;17.67;;
11777;SDS011;5946;51.770;8.548;2022-10-17T06:31:20;27.10;;;18.07;;
11777;SDS011;5946;51.770;8.548;2022-10-17T06:33:46;26.03;;;17.50;;
11777;SDS011;5946;51.770;8.548;2022-10-17T06:36:12;26.03;;;17.47;;
11777;SDS011;5946;51.770;8.548;2022-10-17T06:38:39;26.53;;;17.23;;
11777;SDS011;5946;51.770;8.548;2022-10-17T06:41:09;28.90;;;17.67;;
11777;SDS011;5946;51.770;8.548;2022-10-17T06:43:37;27.00;;;16.53;;
11777;SDS011;5946;51.770;8.548;2022-10-17T06:46:03;25.87;;;18.13;;
11777;SDS011;5946;51.770;8.548;2022-10-17T06:48:29;23.57;;;15.57;;
11777;SDS011;5946;51.770;8.548;2022-10-17T06:50:59;25.13;;;17.07;;
11777;SDS011;5946;51.770;8.548;2022-10-17T06:53:28;22.93;;;15.60;;
11777;SDS011;5946;51.770;8.548;2022-10-17T06:55:54;22.23;;;15.80;;
11777;SDS011;5946;51.770;8.548;2022-10-17T06:58:25;22.33;;;16.27;;
11777;SDS011;5946;51.770;8.548;2022-10-17T07:00:51;21.67;;;14.90;;
11777;SDS011;5946;51.770;8.548;2022-10-17T07:03:17;22.53;;;15.67;;
11777;SDS011;5946;51.770;8.548;2022-10-17T07:05:49;24.77;;;15.77;;
11777;SDS011;5946;51.770;8.548;2022-10-17T07:08:16;26.73;;;15.00;;
11777;SDS011;5946;51.770;8.548;2022-10-17T07:10:42;19.33;;;14.23;;
11777;SDS011;5946;51.770;8.548;2022-10-17T07:13:08;18.27;;;15.13;;
11777;SDS011;5946;51.770;8.548;2022-10-17T07:15:34;21.30;;;16.00;;
11777;SDS011;5946;51.770;8.548;2022-10-17T07:17:59;27.57;;;17.87;;
11777;SDS011;5946;51.770;8.548;2022-10-17T07:20:25;28.60;;;17.67;;
11777;SDS011;5946;51.770;8.548;2022-10-17T07:22:51;22.40;;;17.07;;
11777;SDS011;5946;51.770;8.548;2022-10-17T07:25:17;20.77;;;15.53;;
11777;SDS011;5946;51.770;8.548;2022-10-17T07:27:43;20.43;;;14.83;;
11777;SDS011;5946;51.770;8.548;2022-10-17T07:30:09;18.77;;;14.23;;
11777;SDS011;5946;51.770;8.548;2022-10-17T07:32:35;23.67;;;14.83;;
11777;SDS011;5946;51.770;8.548;2022-10-17T07:35:01;22.30;;;13.73;;
11777;SDS011;5946;51.770;8.548;2022-10-17T07:37:28;18.23;;;13.47;;
11777;SDS011;5946;51.770;8.548;2022-10-17T07:39:54;15.33;;;11.97;;
11777;SDS011;5946;51.770;8.548;2022-10-17T07:42:20;18.30;;;12.57;;
11777;SDS011;5946;51.770;8.548;2022-10-17T07:44:46;14.77;;;12.03;;
11777;SDS011;5946;51.770;8.548;2022-10-17T07:47:12;17.70;;;11.77;;
11777;SDS011;5946;51.770;8.548;2022-10-17T07:49:38;18.33;;;11.60;;
11777;SDS011;5946;51.770;8.548;2022-10-17T07:52:08;17.20;;;11.73;;
11777;SDS011;5946;51.770;8.548;2022-10-17T07:54:34;13.33;;;11.67;;
11777;SDS011;5946;51.770;8.548;2022-10-17T07:57:00;14.17;;;10.93;;
11777;SDS011;5946;51.770;8.548;2022-10-17T07:59:26;15.80;;;11.60;;
11777;SDS011;5946;51.770;8.548;2022-10-17T08:01:55;16.10;;;11.30;;
11777;SDS011;5946;51.770;8.548;2022-10-17T08:04:21;13.03;;;10.60;;
11777;SDS011;5946;51.770;8.548;2022-10-17T08:06:48;11.83;;;9.43;;
11777;SDS011;5946;51.770;8.548;2022-10-17T08:09:14;12.67;;;9.33;;
11777;SDS011;5946;51.770;8.548;2022-10-17T08:11:40;12.40;;;9.47;;
11777;SDS011;5946;51.770;8.548;2022-10-17T08:14:08;11.50;;;8.73;;
11777;SDS011;5946;51.770;8.548;2022-10-17T08:16:34;13.67;;;8.60;;
11777;SDS011;5946;51.770;8.548;2022-10-17T08:19:00;14.10;;;7.33;;
11777;SDS011;5946;51.770;8.548;2022-10-17T08:21:26;11.23;;;7.20;;
11777;SDS011;5946;51.770;8.548;2022-10-17T08:23:52;9.03;;;6.67;;
11777;SDS011;5946;51.770;8.548;2022-10-17T08:26:18;9.67;;;6.60;;
11777;SDS011;5946;51.770;8.548;2022-10-17T08:28:45;11.50;;;6.30;;
11777;SDS011;5946;51.770;8.548;2022-10-17T08:31:12;6.80;;;6.10;;
11777;SDS011;5946;51.770;8.548;2022-10-17T08:33:38;7.47;;;6.17;;
11777;SDS011;5946;51.770;8.548;2022-10-17T08:36:04;8.60;;;5.70;;
11777;SDS011;5946;51.770;8.548;2022-10-17T08:38:31;8.10;;;5.47;;
11777;SDS011;5946;51.770;8.548;2022-10-17T08:40:59;7.37;;;5.70;;
11777;SDS011;5946;51.770;8.548;2022-10-17T08:46:01;12.60;;;5.33;;
11777;SDS011;5946;51.770;8.548;2022-10-17T08:48:29;10.53;;;5.37;;
11777;SDS011;5946;51.770;8.548;2022-10-17T08:53:48;8.70;;;4.90;;
11777;SDS011;5946;51.770;8.548;2022-10-17T08:56:16;6.43;;;4.77;;
11777;SDS011;5946;51.770;8.548;2022-10-17T08:58:43;6.13;;;5.10;;
11777;SDS011;5946;51.770;8.548;2022-10-17T09:01:18;9.43;;;5.17;;
11777;SDS011;5946;51.770;8.548;2022-10-17T09:04:05;4.90;;;4.40;;
11777;SDS011;5946;51.770;8.548;2022-10-17T09:06:38;8.05;;;5.20;;
11777;SDS011;5946;51.770;8.548;2022-10-17T09:19:27;44.13;;;7.82;;
11777;SDS011;5946;51.770;8.548;2022-10-17T09:21:57;12.73;;;4.13;;
11777;SDS011;5946;51.770;8.548;2022-10-17T09:24:38;5.55;;;4.00;;
11777;SDS011;5946;51.770;8.548;2022-10-17T09:27:08;6.28;;;4.20;;
11777;SDS011;5946;51.770;8.548;2022-10-17T09:29:39;4.65;;;4.13;;
11777;SDS011;5946;51.770;8.548;2022-10-17T09:32:24;6.32;;;3.80;;
11777;SDS011;5946;51.770;8.548;2022-10-17T09:34:51;6.80;;;3.90;;
11777;SDS011;5946;51.770;8.548;2022-10-17T09:37:17;9.70;;;3.53;;
11777;SDS011;5946;51.770;8.548;2022-10-17T09:39:44;4.80;;;3.97;;
11777;SDS011;5946;51.770;8.548;2022-10-17T09:42:11;5.88;;;4.13;;
11777;SDS011;5946;51.770;8.548;2022-10-17T09:44:46;10.52;;;3.72;;
11777;SDS011;5946;51.770;8.548;2022-10-17T09:49:39;5.10;;;3.70;;
11777;SDS011;5946;51.770;8.548;2022-10-17T09:52:08;10.52;;;3.80;;
11777;SDS011;5946;51.770;8.548;2022-10-17T09:54:40;8.93;;;3.33;;
11777;SDS011;5946;51.770;8.548;2022-10-17T09:57:07;12.10;;;3.33;;
11777;SDS011;5946;51.770;8.548;2022-10-17T09:59:35;11.15;;;3.95;;
11777;SDS011;5946;51.770;8.548;2022-10-17T10:04:33;7.90;;;3.05;;
11777;SDS011;5946;51.770;8.548;2022-10-17T10:07:00;6.30;;;3.28;;
11777;SDS011;5946;51.770;8.548;2022-10-17T10:09:27;7.78;;;3.10;;
11777;SDS011;5946;51.770;8.548;2022-10-17T10:11:54;9.48;;;3.15;;
11777;SDS011;5946;51.770;8.548;2022-10-17T10:14:22;9.10;;;3.30;;
11777;SDS011;5946;51.770;8.548;2022-10-17T10:16:49;14.70;;;3.45;;
11777;SDS011;5946;51.770;8.548;2022-10-17T10:19:25;6.20;;;3.15;;
11777;SDS011;5946;51.770;8.548;2022-10-17T10:21:54;7.95;;;3.30;;
11777;SDS011;5946;51.770;8.548;2022-10-17T10:24:20;9.88;;;3.05;;
11777;SDS011;5946;51.770;8.548;2022-10-17T10:26:47;10.02;;;3.60;;
11777;SDS011;5946;51.770;8.548;2022-10-17T10:29:19;5.88;;;3.17;;
11777;SDS011;5946;51.770;8.548;2022-10-17T10:31:46;8.73;;;3.35;;
11777;SDS011;5946;51.770;8.548;2022-10-17T10:34:20;5.07;;;2.58;;
11777;SDS011;5946;51.770;8.548;2022-10-17T10:36:49;7.07;;;3.30;;
11777;SDS011;5946;51.770;8.548;2022-10-17T10:40:02;9.43;;;3.05;;
11777;SDS011;5946;51.770;8.548;2022-10-17T10:42:04;9.48;;;3.33;;
11777;SDS011;5946;51.770;8.548;2022-10-17T10:44:31;6.72;;;2.97;;
11777;SDS011;5946;51.770;8.548;2022-10-17T10:49:32;4.00;;;3.00;;
11777;SDS011;5946;51.770;8.548;2022-10-17T10:51:59;6.88;;;3.00;;
11777;SDS011;5946;51.770;8.548;2022-10-17T10:54:31;7.72;;;3.30;;
11777;SDS011;5946;51.770;8.548;2022-10-17T10:56:59;5.03;;;3.17;;
11777;SDS011;5946;51.770;8.548;2022-10-17T10:59:31;7.93;;;3.05;;
11777;SDS011;5946;51.770;8.548;2022-10-17T11:02:02;4.32;;;2.75;;
11777;SDS011;5946;51.770;8.548;2022-10-17T11:04:35;4.72;;;3.20;;
11777;SDS011;5946;51.770;8.548;2022-10-17T11:09:45;6.47;;;3.38;;
11777;SDS011;5946;51.770;8.548;2022-10-17T11:12:18;5.60;;;2.92;;
11777;SDS011;5946;51.770;8.548;2022-10-17T11:14:48;8.10;;;2.83;;
11777;SDS011;5946;51.770;8.548;2022-10-17T11:17:27;10.95;;;3.40;;
11777;SDS011;5946;51.770;8.548;2022-10-17T11:19:58;8.68;;;2.78;;
11777;SDS011;5946;51.770;8.548;2022-10-17T11:22:26;5.15;;;2.80;;
11777;SDS011;5946;51.770;8.548;2022-10-17T11:27:37;8.80;;;3.53;;
11777;SDS011;5946;51.770;8.548;2022-10-17T11:30:03;9.18;;;3.33;;
11777;SDS011;5946;51.770;8.548;2022-10-17T11:35:23;8.35;;;3.10;;
11777;SDS011;5946;51.770;8.548;2022-10-17T11:38:00;6.70;;;3.45;;
11777;SDS011;5946;51.770;8.548;2022-10-17T11:40:32;5.47;;;3.13;;
11777;SDS011;5946;51.770;8.548;2022-10-17T11:43:00;6.78;;;3.10;;
11777;SDS011;5946;51.770;8.548;2022-10-17T11:45:27;7.68;;;3.50;;
11777;SDS011;5946;51.770;8.548;2022-10-17T11:47:57;10.98;;;3.38;;
11777;SDS011;5946;51.770;8.548;2022-10-17T11:50:34;8.65;;;3.13;;
11777;SDS011;5946;51.770;8.548;2022-10-17T11:53:11;8.20;;;3.25;;
11777;SDS011;5946;51.770;8.548;2022-10-17T11:55:38;6.95;;;2.95;;
11777;SDS011;5946;51.770;8.548;2022-10-17T12:05:51;10.13;;;3.20;;
11777;SDS011;5946;51.770;8.548;2022-10-17T12:13:47;7.13;;;3.28;;
11777;SDS011;5946;51.770;8.548;2022-10-17T12:18:45;9.73;;;3.28;;
11777;SDS011;5946;51.770;8.548;2022-10-17T12:21:12;6.13;;;3.67;;
11777;SDS011;5946;51.770;8.548;2022-10-17T12:23:38;7.63;;;3.72;;
11777;SDS011;5946;51.770;8.548;2022-10-17T12:26:06;10.27;;;3.45;;
11777;SDS011;5946;51.770;8.548;2022-10-17T12:28:40;5.43;;;3.50;;
11777;SDS011;5946;51.770;8.548;2022-10-17T12:31:20;9.95;;;3.20;;
11777;SDS011;5946;51.770;8.548;2022-10-17T12:33:53;7.32;;;3.20;;
11777;SDS011;5946;51.770;8.548;2022-10-17T12:46:51;8.80;;;3.28;;
11777;SDS011;5946;51.770;8.548;2022-10-17T13:00:17;9.30;;;3.17;;
11777;SDS011;5946;51.770;8.548;2022-10-17T13:02:44;4.95;;;3.30;;
11777;SDS011;5946;51.770;8.548;2022-10-17T13:05:13;8.60;;;3.53;;
11777;SDS011;5946;51.770;8.548;2022-10-17T13:07:40;8.57;;;3.53;;
11777;SDS011;5946;51.770;8.548;2022-10-17T13:10:15;4.57;;;3.35;;
11777;SDS011;5946;51.770;8.548;2022-10-17T13:12:42;9.85;;;3.75;;
11777;SDS011;5946;51.770;8.548;2022-10-17T13:15:10;8.80;;;3.20;;
11777;SDS011;5946;51.770;8.548;2022-10-17T13:17:41;11.43;;;3.50;;
11777;SDS011;5946;51.770;8.548;2022-10-17T13:20:16;8.10;;;3.47;;
11777;SDS011;5946;51.770;8.548;2022-10-17T13:22:43;8.10;;;3.20;;
11777;SDS011;5946;51.770;8.548;2022-10-17T13:25:14;3.80;;;3.38;;
11777;SDS011;5946;51.770;8.548;2022-10-17T13:27:41;8.75;;;3.53;;
11777;SDS011;5946;51.770;8.548;2022-10-17T13:30:20;6.93;;;3.35;;
11777;SDS011;5946;51.770;8.548;2022-10-17T13:32:46;12.43;;;3.83;;
11777;SDS011;5946;51.770;8.548;2022-10-17T13:35:13;9.55;;;3.80;;
11777;SDS011;5946;51.770;8.548;2022-10-17T13:37:41;8.35;;;3.83;;
11777;SDS011;5946;51.770;8.548;2022-10-17T13:40:14;7.57;;;3.25;;
11777;SDS011;5946;51.770;8.548;2022-10-17T13:42:40;13.57;;;3.60;;
11777;SDS011;5946;51.770;8.548;2022-10-17T13:45:49;6.68;;;3.15;;
11777;SDS011;5946;51.770;8.548;2022-10-17T13:47:59;11.05;;;3.78;;
11777;SDS011;5946;51.770;8.548;2022-10-17T13:50:30;9.57;;;3.65;;
11777;SDS011;5946;51.770;8.548;2022-10-17T13:55:32;10.00;;;3.33;;
11777;SDS011;5946;51.770;8.548;2022-10-17T13:58:14;8.95;;;3.30;;
11777;SDS011;5946;51.770;8.548;2022-10-17T14:00:41;16.77;;;3.70;;
11777;SDS011;5946;51.770;8.548;2022-10-17T14:03:07;12.18;;;3.72;;
11777;SDS011;5946;51.770;8.548;2022-10-17T14:05:33;7.55;;;3.28;;
11777;SDS011;5946;51.770;8.548;2022-10-17T14:08:03;10.82;;;3.80;;
11777;SDS011;5946;51.770;8.548;2022-10-17T14:10:33;9.52;;;3.55;;
11777;SDS011;5946;51.770;8.548;2022-10-17T14:12:59;17.13;;;4.05;;
11777;SDS011;5946;51.770;8.548;2022-10-17T14:15:29;8.55;;;3.63;;
11777;SDS011;5946;51.770;8.548;2022-10-17T14:18:03;9.88;;;3.83;;
11777;SDS011;5946;51.770;8.548;2022-10-17T14:20:29;12.00;;;3.97;;
11777;SDS011;5946;51.770;8.548;2022-10-17T14:22:56;12.95;;;4.32;;
11777;SDS011;5946;51.770;8.548;2022-10-17T14:25:32;6.95;;;3.72;;
11777;SDS011;5946;51.770;8.548;2022-10-17T14:28:22;8.73;;;3.90;;
11777;SDS011;5946;51.770;8.548;2022-10-17T14:30:48;6.00;;;3.70;;
11777;SDS011;5946;51.770;8.548;2022-10-17T14:35:49;10.27;;;3.80;;
11777;SDS011;5946;51.770;8.548;2022-10-17T14:38:15;11.82;;;4.10;;
11777;SDS011;5946;51.770;8.548;2022-10-17T14:40:48;5.90;;;3.70;;
11777;SDS011;5946;51.770;8.548;2022-10-17T14:43:15;7.72;;;3.90;;
11777;SDS011;5946;51.770;8.548;2022-10-17T14:45:44;11.90;;;3.97;;
11777;SDS011;5946;51.770;8.548;2022-10-17T14:48:14;11.77;;;3.78;;
11777;SDS011;5946;51.770;8.548;2022-10-17T14:50:41;6.80;;;3.80;;
11777;SDS011;5946;51.770;8.548;2022-10-17T14:53:27;8.50;;;4.32;;
11777;SDS011;5946;51.770;8.548;2022-10-17T14:56:04;8.95;;;4.18;;
11777;SDS011;5946;51.770;8.548;2022-10-17T14:58:44;7.20;;;3.90;;
11777;SDS011;5946;51.770;8.548;2022-10-17T15:01:10;9.38;;;4.00;;
11777;SDS011;5946;51.770;8.548;2022-10-17T15:03:36;6.32;;;3.80;;
11777;SDS011;5946;51.770;8.548;2022-10-17T15:09:04;11.55;;;4.30;;
11777;SDS011;5946;51.770;8.548;2022-10-17T15:11:30;10.32;;;4.25;;
11777;SDS011;5946;51.770;8.548;2022-10-17T15:13:56;8.52;;;4.20;;
11777;SDS011;5946;51.770;8.548;2022-10-17T15:16:23;8.18;;;4.25;;
11777;SDS011;5946;51.770;8.548;2022-10-17T15:18:50;10.02;;;4.43;;
11777;SDS011;5946;51.770;8.548;2022-10-17T15:21:19;7.75;;;3.95;;
11777;SDS011;5946;51.770;8.548;2022-10-17T15:23:45;12.18;;;4.20;;
11777;SDS011;5946;51.770;8.548;2022-10-17T15:26:14;9.32;;;4.20;;
11777;SDS011;5946;51.770;8.548;2022-10-17T15:28:41;8.23;;;3.88;;
11777;SDS011;5946;51.770;8.548;2022-10-17T15:31:11;6.47;;;3.83;;
11777;SDS011;5946;51.770;8.548;2022-10-17T15:33:37;16.33;;;4.00;;
11777;SDS011;5946;51.770;8.548;2022-10-17T15:36:03;9.60;;;4.20;;
11777;SDS011;5946;51.770;8.548;2022-10-17T15:38:29;8.35;;;4.07;;
11777;SDS011;5946;51.770;8.548;2022-10-17T15:40:55;10.18;;;3.90;;
11777;SDS011;5946;51.770;8.548;2022-10-17T15:43:21;10.20;;;4.35;;
11777;SDS011;5946;51.770;8.548;2022-10-17T15:45:47;9.88;;;3.85;;
11777;SDS011;5946;51.770;8.548;2022-10-17T15:48:27;6.75;;;3.85;;
11777;SDS011;5946;51.770;8.548;2022-10-17T15:50:54;15.02;;;4.28;;
11777;SDS011;5946;51.770;8.548;2022-10-17T15:53:20;8.38;;;3.22;;
11777;SDS011;5946;51.770;8.548;2022-10-17T15:55:47;6.85;;;3.80;;
11777;SDS011;5946;51.770;8.548;2022-10-17T15:58:15;14.05;;;3.60;;
11777;SDS011;5946;51.770;8.548;2022-10-17T16:00:41;10.30;;;3.70;;
11777;SDS011;5946;51.770;8.548;2022-10-17T16:03:08;10.00;;;3.35;;
11777;SDS011;5946;51.770;8.548;2022-10-17T16:05:34;10.70;;;3.85;;
11777;SDS011;5946;51.770;8.548;2022-10-17T16:08:00;6.53;;;3.50;;
11777;SDS011;5946;51.770;8.548;2022-10-17T16:10:26;8.82;;;3.08;;
11777;SDS011;5946;51.770;8.548;2022-10-17T16:12:52;10.20;;;3.60;;
11777;SDS011;5946;51.770;8.548;2022-10-17T16:17:46;7.03;;;3.22;;
11777;SDS011;5946;51.770;8.548;2022-10-17T16:20:12;11.50;;;3.88;;
11777;SDS011;5946;51.770;8.548;2022-10-17T16:22:38;10.38;;;3.58;;
11777;SDS011;5946;51.770;8.548;2022-10-17T16:25:07;7.80;;;3.57;;
11777;SDS011;5946;51.770;8.548;2022-10-17T16:27:37;14.67;;;4.13;;
11777;SDS011;5946;51.770;8.548;2022-10-17T16:30:04;8.57;;;3.67;;
11777;SDS011;5946;51.770;8.548;2022-10-17T16:32:30;8.97;;;3.67;;
11777;SDS011;5946;51.770;8.548;2022-10-17T16:34:56;6.47;;;3.47;;
11777;SDS011;5946;51.770;8.548;2022-10-17T16:37:24;5.77;;;3.60;;
11777;SDS011;5946;51.770;8.548;2022-10-17T16:39:50;6.77;;;4.00;;